Fort Saint John, British Columbia

11:08 PM PDT on August 30, 2016 (GMT -0700)
Parklane - Fort St. John | | Change Station

Elev 2221 ft 56.23 °N, 120.81 °W | Updated 8 minutes ago

Overcast
Overcast
48.5 °F
Feels Like 48 °F
N
3.0
Wind Variable Wind from NW
Gusts 11.0 mph

Today
High -- | Low -- °F
--% Chance of Precip.
Yesterday
High -- | Low -- °F
Precip. -- in
Pressure 30.15 in
Visibility 10.0 miles
Clouds Overcast 300 ft
Windchill 48 °F
Dew Point 48 °F
Humidity 97%
Rainfall 0.40 in
Snow Depth Not available.
6:04 AM 8:01 PM
Waning Crescent, 1% visible
METAR CYXJ 310600Z 34013G19KT 10SM OVC003 09/08 A3009 RMK ST8 SLP209
Pressure 30.15 in
Visibility 10.0 miles
Clouds Overcast 300 ft
Windchill 48 °F
Dew Point 48 °F
Humidity 97%
Rainfall 0.40 in
Snow Depth Not available.
6:04 AM 8:01 PM
Waning Crescent, 1% visible
METAR CYXJ 310600Z 34013G19KT 10SM OVC003 09/08 A3009 RMK ST8 SLP209

10-Day Weather Forecast

Almanac

Astronomy

Aug. 30, 2016 Rise Set
Actual Time
Civil Twilight
Nautical Twilight
Astronomical Twilight
Moon
Length of Visible Light
Length of Day
Tomorrow will be .
, % of the Moon is Illuminated

Today's Extremes

Country Highs Country Lows

Community

WunderPhotos

Upload Photos

1,936,040 photos uploaded!

WunderBlog® & News

Nearby

Air Quality

  Air Quality AQ Index Pollutant
Not available.

Snow Depth

Station Depth Elevation

Earthquake Activity

City Distance Mag. Time & Date
Minimum magnitude displayed is 2.5.

Coastal Water Temperatures

Place Temperature

Stations

Nearby Weather Stations

Station Location Temp. Windchill Dew Point Humidity Wind Precip. Elev Updated Type
                   

Watches & Warnings

There are currently no watches in effect.